createdAt,value
2019-06-08T00:00:27.293Z,59.89
2019-06-08T00:02:57.737Z,61.38
2019-06-08T00:05:28.341Z,62.75
2019-06-08T00:07:58.727Z,66.46
2019-06-08T00:10:29.634Z,65.67
2019-06-08T00:13:00.005Z,63.95
2019-06-08T00:15:30.487Z,62.69
2019-06-08T00:18:00.865Z,61.88
2019-06-08T00:20:31.352Z,60.95
2019-06-08T00:23:01.727Z,60.30
2019-06-08T00:25:32.118Z,59.88
2019-06-08T00:28:02.506Z,59.53
2019-06-08T00:30:32.985Z,59.26
2019-06-08T00:33:03.373Z,58.20
2019-06-08T00:35:33.848Z,58.74
2019-06-08T00:38:04.306Z,60.16
2019-06-08T00:40:34.725Z,62.11
2019-06-08T00:43:05.187Z,63.00
2019-06-08T00:45:36.713Z,66.93
2019-06-08T00:48:07.092Z,66.50
2019-06-08T00:50:37.655Z,64.56
2019-06-08T00:53:08.024Z,62.74
2019-06-08T00:55:38.422Z,61.69
2019-06-08T00:58:08.796Z,60.82
2019-06-08T01:00:39.786Z,59.56
2019-06-08T01:03:11.180Z,58.85
2019-06-08T01:05:41.586Z,57.87
2019-06-08T01:08:12.121Z,58.29
2019-06-08T01:10:42.662Z,59.19
2019-06-08T01:13:13.153Z,60.94
2019-06-08T01:15:43.562Z,62.40
2019-06-08T01:18:13.946Z,66.04
2019-06-08T01:20:44.803Z,65.24
2019-06-08T01:23:15.179Z,63.92
2019-06-08T01:25:45.654Z,62.54
2019-06-08T01:28:16.390Z,62.13
2019-06-08T01:30:47.085Z,61.18
2019-06-08T01:33:17.528Z,61.48
2019-06-08T01:35:47.995Z,61.05
2019-06-08T01:38:18.512Z,60.33
2019-06-08T01:40:48.985Z,60.44
2019-06-08T01:43:19.456Z,59.94
2019-06-08T01:45:50.450Z,59.62
2019-06-08T01:48:22.290Z,59.32
2019-06-08T01:50:53.714Z,58.26
2019-06-08T01:53:24.668Z,58.20
2019-06-08T01:55:55.245Z,60.21
2019-06-08T01:58:25.707Z,63.21
2019-06-08T02:00:56.125Z,67.19
2019-06-08T02:03:26.588Z,66.52
2019-06-08T02:05:57.002Z,65.22
2019-06-08T02:08:28.614Z,64.18
2019-06-08T02:10:59.089Z,62.60
2019-06-08T02:13:30.793Z,61.45
2019-06-08T02:16:01.566Z,60.08
2019-06-08T02:18:39.819Z,59.34
2019-06-08T02:21:04.154Z,58.50
2019-06-08T02:23:35.171Z,59.32
2019-06-08T02:26:05.689Z,60.04
2019-06-08T02:28:36.288Z,61.64
2019-06-08T02:31:06.731Z,63.14
2019-06-08T02:33:37.419Z,66.54
2019-06-08T02:36:07.876Z,65.87
2019-06-08T02:38:39.561Z,64.05
2019-06-08T02:41:10.127Z,62.55
2019-06-08T02:43:40.646Z,61.24
2019-06-08T02:46:11.063Z,60.59
2019-06-08T02:49:02.301Z,60.16
2019-06-08T02:51:13.601Z,59.42
2019-06-08T02:53:43.984Z,59.15
2019-06-08T02:56:15.677Z,59.95
2019-06-08T02:58:46.310Z,61.17
2019-06-08T03:01:16.867Z,62.97
2019-06-08T03:03:47.221Z,66.54
2019-06-08T03:06:17.786Z,65.67
2019-06-08T03:08:48.307Z,63.98
2019-06-08T03:11:20.312Z,62.20
2019-06-08T03:13:50.820Z,60.88
2019-06-08T03:16:21.719Z,59.73
2019-06-08T03:18:52.285Z,58.62
2019-06-08T03:21:22.678Z,56.98
2019-06-08T03:23:53.144Z,57.56
2019-06-08T03:26:23.913Z,59.42
2019-06-08T03:28:54.281Z,60.96
2019-06-08T03:31:24.680Z,62.66
2019-06-08T03:33:56.670Z,66.49
2019-06-08T03:36:27.798Z,65.53
2019-06-08T03:38:58.184Z,63.52
2019-06-08T03:41:28.614Z,61.59
2019-06-08T03:43:59.253Z,59.94
2019-06-08T03:46:29.937Z,58.43
2019-06-08T03:49:00.287Z,56.67
2019-06-08T03:51:35.078Z,56.92
2019-06-08T03:54:03.129Z,57.96
2019-06-08T03:56:33.539Z,59.52
2019-06-08T03:59:04.561Z,60.74
2019-06-08T04:01:35.151Z,62.28
2019-06-08T04:04:05.504Z,64.77
2019-06-08T04:06:37.616Z,63.57
2019-06-08T04:09:09.020Z,61.75
2019-06-08T04:11:40.171Z,59.93
2019-06-08T04:14:11.582Z,58.74
2019-06-08T04:16:42.920Z,57.18
2019-06-08T04:19:14.426Z,57.04
2019-06-08T04:21:46.277Z,57.85
2019-06-08T04:24:16.854Z,59.57
2019-06-08T04:26:47.355Z,60.75
2019-06-08T04:29:17.795Z,62.76
2019-06-08T04:31:50.019Z,65.41
2019-06-08T04:34:20.275Z,64.38
2019-06-08T04:36:50.657Z,62.42
2019-06-08T04:39:20.998Z,60.52
2019-06-08T04:41:51.416Z,59.43
2019-06-08T04:44:21.893Z,58.30
2019-06-08T04:46:52.279Z,57.25
2019-06-08T04:49:22.664Z,58.19
2019-06-08T04:51:53.169Z,58.60
2019-06-08T04:54:23.623Z,60.49
2019-06-08T04:56:54.191Z,61.24
2019-06-08T04:59:24.568Z,62.47
2019-06-08T05:01:55.165Z,65.12
2019-06-08T05:04:25.521Z,63.56
2019-06-08T05:06:55.925Z,61.19
2019-06-08T05:09:26.382Z,59.45
2019-06-08T05:11:56.849Z,57.24
2019-06-08T05:14:27.223Z,56.97
2019-06-08T05:16:57.649Z,58.15
2019-06-08T05:19:28.010Z,59.48
2019-06-08T05:21:58.432Z,60.36
2019-06-08T05:24:28.866Z,61.20
2019-06-08T05:26:59.763Z,62.74
2019-06-08T05:29:30.202Z,64.94
2019-06-08T05:32:00.683Z,62.80
2019-06-08T05:34:31.127Z,61.74
2019-06-08T05:37:01.599Z,59.71
2019-06-08T05:39:32.130Z,57.77
2019-06-08T05:42:02.538Z,55.51
2019-06-08T05:44:32.911Z,55.69
2019-06-08T05:47:03.387Z,56.04
2019-06-08T05:49:33.954Z,56.28
2019-06-08T05:52:04.941Z,57.13
2019-06-08T05:54:35.297Z,57.99
2019-06-08T05:57:05.881Z,58.44
2019-06-08T05:59:36.483Z,59.91
2019-06-08T06:02:06.888Z,59.91
2019-06-08T06:04:37.332Z,60.65
2019-06-08T06:07:07.715Z,59.88
2019-06-08T06:09:38.175Z,59.43
2019-06-08T06:12:08.707Z,59.55
2019-06-08T06:14:39.065Z,59.76
2019-06-08T06:17:09.467Z,59.56
2019-06-08T06:19:41.068Z,59.58
2019-06-08T06:22:11.569Z,59.11
2019-06-08T06:24:43.707Z,58.86
2019-06-08T06:27:14.289Z,58.67
2019-06-08T06:29:45.459Z,59.28
2019-06-08T06:32:15.956Z,59.30
2019-06-08T06:34:47.844Z,59.12
2019-06-08T06:37:18.363Z,58.40
2019-06-08T06:39:50.067Z,58.44
2019-06-08T06:42:20.616Z,58.26
2019-06-08T06:44:52.445Z,58.29
2019-06-08T06:47:23.188Z,58.62
2019-06-08T06:49:53.603Z,58.07
2019-06-08T06:52:24.172Z,58.07
2019-06-08T06:54:54.559Z,56.80
2019-06-08T06:57:24.977Z,57.04
2019-06-08T06:59:55.438Z,57.48
2019-06-08T07:02:26.058Z,57.31
2019-06-08T07:04:56.471Z,56.48
2019-06-08T07:07:27.040Z,56.34
2019-06-08T07:09:57.418Z,56.69
2019-06-08T07:12:27.900Z,56.14
2019-06-08T07:14:58.284Z,55.90
2019-06-08T07:17:28.799Z,55.71
2019-06-08T07:19:59.204Z,54.62
2019-06-08T07:22:29.624Z,53.55
2019-06-08T07:25:00.079Z,53.76
2019-06-08T07:27:30.550Z,54.09
2019-06-08T07:30:01.069Z,53.23
2019-06-08T07:32:31.583Z,53.35
2019-06-08T07:35:01.959Z,53.78
2019-06-08T07:37:32.655Z,52.79
2019-06-08T07:40:06.103Z,53.29
2019-06-08T07:42:37.088Z,53.34
2019-06-08T07:45:08.402Z,53.66
2019-06-08T07:47:38.819Z,52.40
2019-06-08T07:50:09.754Z,52.04
2019-06-08T07:52:40.260Z,50.73
2019-06-08T07:55:10.736Z,51.40
2019-06-08T07:57:41.325Z,51.26
2019-06-08T08:00:11.753Z,51.69
2019-06-08T08:02:42.305Z,49.85
2019-06-08T08:05:12.744Z,50.42
2019-06-08T08:07:43.140Z,50.25
2019-06-08T08:10:14.396Z,50.08
2019-06-08T08:12:44.849Z,49.51
2019-06-08T08:15:15.358Z,49.34
2019-06-08T08:17:45.705Z,49.65
2019-06-08T08:20:17.221Z,49.08
2019-06-08T08:22:49.762Z,49.39
2019-06-08T08:25:20.294Z,47.75
2019-06-08T08:27:51.961Z,47.42
2019-06-08T08:30:23.074Z,48.00
2019-06-08T08:32:55.087Z,48.08
2019-06-08T08:35:27.990Z,46.59
2019-06-08T08:38:03.889Z,46.33
2019-06-08T08:40:31.664Z,46.82
2019-06-08T08:43:02.151Z,45.91
2019-06-08T08:45:32.626Z,45.83
2019-06-08T08:48:21.095Z,45.89
2019-06-08T08:50:38.273Z,44.64
2019-06-08T08:53:08.812Z,44.48
2019-06-08T08:55:39.183Z,44.88
2019-06-08T08:58:09.578Z,44.90
2019-06-08T09:00:41.192Z,44.61
2019-06-08T09:03:26.058Z,43.85
2019-06-08T09:05:43.925Z,43.33
2019-06-08T09:08:14.416Z,43.88
2019-06-08T09:10:48.073Z,42.75
2019-06-08T09:13:18.845Z,42.53
2019-06-08T09:15:49.221Z,42.19
2019-06-08T09:18:19.735Z,41.62
2019-06-08T09:20:50.096Z,41.78
2019-06-08T09:23:21.887Z,41.70
2019-06-08T09:25:55.064Z,41.61
2019-06-08T09:28:25.339Z,41.61
2019-06-08T09:30:56.703Z,41.86
2019-06-08T09:33:28.849Z,42.20
2019-06-08T09:36:01.586Z,40.70
2019-06-08T09:38:31.926Z,40.84
2019-06-08T09:41:04.886Z,40.56
2019-06-08T09:43:34.899Z,40.31
2019-06-08T09:46:08.749Z,40.84
2019-06-08T09:48:38.267Z,41.09
2019-06-08T09:51:09.843Z,40.81
2019-06-08T09:53:41.624Z,40.76
2019-06-08T09:56:13.332Z,40.55
2019-06-08T09:58:43.731Z,40.53
2019-06-08T10:01:14.215Z,40.70
2019-06-08T10:03:44.766Z,40.52
2019-06-08T10:06:18.037Z,40.56
2019-06-08T10:08:48.143Z,40.22
2019-06-08T10:11:18.690Z,39.13
2019-06-08T10:13:49.190Z,39.56
2019-06-08T10:16:19.576Z,39.66
2019-06-08T10:18:51.561Z,40.24
2019-06-08T10:21:22.161Z,40.00
2019-06-08T10:23:52.583Z,40.79
2019-06-08T10:26:23.323Z,41.14
2019-06-08T10:28:55.257Z,39.72
2019-06-08T10:31:36.445Z,39.39
2019-06-08T10:34:00.562Z,40.69
2019-06-08T10:36:30.026Z,40.74
2019-06-08T10:39:03.852Z,41.43
2019-06-08T10:41:32.584Z,41.20
2019-06-08T10:44:03.504Z,41.06
2019-06-08T10:46:34.041Z,40.93
2019-06-08T10:49:05.959Z,41.30
2019-06-08T10:51:40.148Z,41.24
2019-06-08T10:54:10.979Z,41.73
2019-06-08T10:56:41.638Z,42.28
2019-06-08T10:59:12.553Z,42.92
2019-06-08T11:01:43.102Z,43.10
2019-06-08T11:04:13.618Z,43.34
2019-06-08T11:06:47.837Z,45.72
2019-06-08T11:09:18.917Z,45.20
2019-06-08T11:11:49.678Z,46.79
2019-06-08T11:14:22.666Z,50.61
2019-06-08T11:16:52.316Z,51.27
2019-06-08T11:19:26.316Z,53.42
2019-06-08T11:22:00.509Z,56.74
2019-06-08T11:24:28.991Z,57.24
2019-06-08T11:27:00.040Z,58.37
2019-06-08T11:29:32.748Z,60.91
2019-06-08T11:32:04.205Z,61.24
2019-06-08T11:34:37.470Z,62.62
2019-06-08T11:37:11.349Z,66.72
2019-06-08T11:39:39.103Z,64.09
2019-06-08T11:42:12.852Z,61.90
2019-06-08T11:44:42.211Z,60.46
2019-06-08T11:47:13.590Z,60.70
2019-06-08T11:49:44.040Z,59.69
2019-06-08T11:52:14.503Z,59.16
2019-06-08T11:54:45.127Z,57.58
2019-06-08T11:57:17.621Z,57.33
2019-06-08T11:59:49.099Z,57.57
2019-06-08T12:02:19.571Z,57.36
2019-06-08T12:04:50.066Z,58.85
2019-06-08T12:07:20.429Z,58.02
2019-06-08T12:09:50.914Z,58.99
2019-06-08T12:12:21.644Z,61.24
2019-06-08T12:14:52.164Z,59.97
2019-06-08T12:17:22.759Z,60.98
2019-06-08T12:19:53.282Z,61.17
2019-06-08T12:22:23.775Z,62.59
2019-06-08T12:24:54.245Z,62.57
2019-06-08T12:27:33.513Z,60.50
2019-06-08T12:29:58.785Z,57.56
2019-06-08T12:32:29.082Z,54.43
2019-06-08T12:35:00.128Z,53.77
2019-06-08T12:37:30.837Z,53.64
2019-06-08T12:40:01.539Z,53.63
2019-06-08T12:42:32.170Z,53.50
2019-06-08T12:45:02.581Z,54.18
2019-06-08T12:47:33.154Z,54.78
2019-06-08T12:50:05.070Z,54.18
2019-06-08T12:52:35.454Z,53.40
2019-06-08T12:55:15.917Z,52.24
2019-06-08T12:57:40.997Z,53.08
2019-06-08T13:00:13.115Z,50.28
2019-06-08T13:02:43.988Z,49.22
2019-06-08T13:05:16.646Z,48.31
2019-06-08T13:07:47.488Z,46.02
2019-06-08T13:10:23.520Z,47.94
2019-06-08T13:12:50.266Z,45.05
2019-06-08T13:15:22.024Z,45.29
2019-06-08T13:17:52.623Z,44.02
2019-06-08T13:20:23.070Z,42.33
2019-06-08T13:22:53.488Z,41.54
2019-06-08T13:25:37.459Z,41.77
2019-06-08T13:27:58.155Z,42.89
2019-06-08T13:30:31.983Z,44.35
2019-06-08T13:33:00.209Z,41.59
2019-06-08T13:35:33.902Z,40.96
2019-06-08T13:38:04.391Z,40.85
2019-06-08T13:40:34.794Z,41.67
2019-06-08T13:43:05.161Z,41.91
2019-06-08T13:45:39.137Z,42.80
2019-06-08T13:48:08.931Z,42.77
2019-06-08T13:50:39.561Z,42.80
2019-06-08T13:53:10.828Z,42.88
2019-06-08T13:55:53.383Z,43.60
2019-06-08T13:58:13.560Z,42.89
2019-06-08T14:00:44.115Z,43.65
2019-06-08T14:03:15.600Z,45.28
2019-06-08T14:05:47.813Z,46.35
2019-06-08T14:08:20.702Z,46.14
2019-06-08T14:10:50.622Z,46.40
2019-06-08T14:13:26.809Z,46.79
2019-06-08T14:15:53.194Z,48.58
2019-06-08T14:18:28.090Z,49.51
2019-06-08T14:20:58.515Z,49.42
2019-06-08T14:23:27.777Z,48.85
2019-06-08T14:26:00.250Z,48.68
2019-06-08T14:28:30.503Z,49.12
2019-06-08T14:31:00.890Z,49.82
2019-06-08T14:33:33.880Z,50.71
2019-06-08T14:36:04.261Z,51.20
2019-06-08T14:38:38.675Z,51.81
2019-06-08T14:41:07.615Z,52.31
2019-06-08T14:43:38.349Z,53.40
2019-06-08T14:46:08.821Z,53.80
2019-06-08T14:48:39.194Z,54.87
2019-06-08T14:51:09.703Z,54.98
2019-06-08T14:53:40.160Z,56.07
2019-06-08T14:56:10.979Z,56.34
2019-06-08T14:58:41.426Z,59.02
2019-06-08T15:01:11.927Z,59.03
2019-06-08T15:03:42.345Z,58.63
2019-06-08T15:06:12.921Z,57.97
2019-06-08T15:08:43.357Z,58.25
2019-06-08T15:11:13.753Z,58.74
2019-06-08T15:13:44.201Z,60.22
2019-06-08T15:16:14.890Z,60.97
2019-06-08T15:18:45.236Z,62.47
2019-06-08T15:21:20.494Z,63.09
2019-06-08T15:23:47.805Z,59.53
2019-06-08T15:26:27.049Z,58.30
2019-06-08T15:28:50.305Z,57.99
2019-06-08T15:31:21.068Z,59.07
2019-06-08T15:33:51.589Z,58.93
2019-06-08T15:36:22.391Z,59.60
2019-06-08T15:38:53.831Z,60.36
2019-06-08T15:41:24.572Z,63.38
2019-06-08T15:43:57.491Z,62.63
2019-06-08T15:46:28.311Z,62.81
2019-06-08T15:48:58.867Z,61.91
2019-06-08T15:51:33.843Z,58.98
2019-06-08T15:54:01.430Z,57.81
2019-06-08T15:56:43.161Z,61.13
2019-06-08T15:59:03.971Z,64.69
2019-06-08T16:01:34.341Z,69.14
2019-06-08T16:04:04.689Z,69.10
2019-06-08T16:06:35.156Z,67.91
2019-06-08T16:09:08.557Z,67.07
2019-06-08T16:11:39.016Z,65.63
2019-06-08T16:14:09.386Z,63.00
2019-06-08T16:16:39.737Z,61.99
2019-06-08T16:19:10.213Z,59.69
2019-06-08T16:21:40.711Z,56.32
2019-06-08T16:24:11.107Z,59.26
2019-06-08T16:26:52.634Z,60.34
2019-06-08T16:29:14.063Z,61.51
2019-06-08T16:31:44.557Z,62.64
2019-06-08T16:34:14.946Z,64.32
2019-06-08T16:36:45.435Z,59.92
2019-06-08T16:39:16.037Z,59.16
2019-06-08T16:41:46.451Z,57.94
2019-06-08T16:44:17.026Z,58.01
2019-06-08T16:46:48.048Z,59.31
2019-06-08T16:49:18.648Z,60.00
2019-06-08T16:51:49.244Z,60.74
2019-06-08T16:54:19.787Z,60.72
2019-06-08T16:56:50.264Z,61.66
2019-06-08T16:59:20.619Z,61.94
2019-06-08T17:01:51.048Z,62.71
2019-06-08T17:04:21.479Z,63.14
2019-06-08T17:06:51.931Z,61.44
2019-06-08T17:09:22.302Z,59.39
2019-06-08T17:11:52.706Z,57.40
2019-06-08T17:14:25.160Z,56.64
2019-06-08T17:16:55.316Z,57.19
2019-06-08T17:19:25.786Z,58.59
2019-06-08T17:21:56.209Z,59.22
2019-06-08T17:24:26.567Z,61.24
2019-06-08T17:26:56.950Z,61.52
2019-06-08T17:29:27.314Z,61.89
2019-06-08T17:31:57.729Z,61.83
2019-06-08T17:34:28.251Z,62.07
2019-06-08T17:36:58.668Z,62.48
2019-06-08T17:39:29.610Z,61.83
2019-06-08T17:42:00.197Z,59.74
2019-06-08T17:44:32.009Z,59.63
2019-06-08T17:47:02.814Z,56.03
2019-06-08T17:49:34.419Z,55.62
2019-06-08T17:52:05.025Z,53.38
2019-06-08T17:54:36.699Z,53.66
2019-06-08T17:57:07.120Z,54.50
2019-06-08T17:59:37.589Z,55.20
2019-06-08T18:02:13.810Z,55.89
2019-06-08T18:04:41.717Z,56.68
2019-06-08T18:07:13.233Z,57.59
2019-06-08T18:09:45.100Z,57.75
2019-06-08T18:12:15.563Z,58.03
2019-06-08T18:14:47.947Z,59.39
2019-06-08T18:17:18.026Z,58.88
2019-06-08T18:19:49.714Z,59.85
2019-06-08T18:22:20.458Z,59.90
2019-06-08T18:24:50.813Z,59.72
2019-06-08T18:27:21.295Z,59.80
2019-06-08T18:29:51.750Z,60.38
2019-06-08T18:32:22.244Z,60.72
2019-06-08T18:34:52.784Z,60.85
2019-06-08T18:37:23.246Z,61.05
2019-06-08T18:39:53.703Z,60.91
2019-06-08T18:42:24.210Z,61.41
2019-06-08T18:44:54.795Z,61.70
2019-06-08T18:47:27.258Z,61.82
2019-06-08T18:49:57.551Z,62.26
2019-06-08T18:52:28.342Z,62.11
2019-06-08T18:54:59.101Z,62.24
2019-06-08T18:57:29.791Z,61.86
2019-06-08T19:00:00.196Z,62.41
2019-06-08T19:02:30.680Z,62.28
2019-06-08T19:05:01.152Z,62.30
2019-06-08T19:07:32.326Z,62.35
2019-06-08T19:10:03.205Z,62.12
2019-06-08T19:12:33.629Z,62.14
2019-06-08T19:15:05.341Z,62.22
2019-06-08T19:17:39.782Z,62.57
2019-06-08T19:20:08.005Z,64.67
2019-06-08T19:22:42.867Z,59.72
2019-06-08T19:25:10.495Z,55.96
2019-06-08T19:27:45.926Z,54.00
2019-06-08T19:30:13.136Z,54.92
2019-06-08T19:32:44.708Z,55.57
2019-06-08T19:35:18.271Z,56.47
2019-06-08T19:37:53.280Z,56.94
2019-06-08T19:40:21.902Z,57.85
2019-06-08T19:42:57.407Z,58.19
2019-06-08T19:45:24.645Z,59.57
2019-06-08T19:47:57.588Z,59.33
2019-06-08T19:50:28.689Z,60.20
2019-06-08T19:52:59.502Z,60.97
2019-06-08T19:55:29.938Z,60.73
2019-06-08T19:58:00.342Z,61.16
2019-06-08T20:00:30.796Z,61.04
2019-06-08T20:03:01.188Z,61.16
2019-06-08T20:05:31.630Z,61.87
2019-06-08T20:08:02.038Z,62.44
2019-06-08T20:10:32.439Z,63.26
2019-06-08T20:13:02.826Z,61.67
2019-06-08T20:15:33.338Z,58.91
2019-06-08T20:18:03.744Z,57.46
2019-06-08T20:20:34.251Z,54.82
2019-06-08T20:23:04.729Z,54.53
2019-06-08T20:25:35.169Z,55.19
2019-06-08T20:28:07.774Z,55.87
2019-06-08T20:30:37.772Z,56.47
2019-06-08T20:33:08.321Z,56.53
2019-06-08T20:35:38.760Z,56.62
2019-06-08T20:38:09.200Z,56.46
2019-06-08T20:40:39.765Z,57.00
2019-06-08T20:43:10.211Z,56.95
2019-06-08T20:45:42.037Z,56.57
2019-06-08T20:48:13.056Z,56.48
2019-06-08T20:50:44.333Z,56.63
2019-06-08T20:53:17.619Z,57.60
2019-06-08T20:55:48.240Z,56.40
2019-06-08T20:58:19.957Z,56.17
2019-06-08T21:00:51.621Z,56.89
2019-06-08T21:03:22.691Z,56.60
2019-06-08T21:05:54.218Z,56.82
2019-06-08T21:08:24.866Z,56.58
2019-06-08T21:10:56.559Z,55.95
2019-06-08T21:13:27.562Z,56.94
2019-06-08T21:16:00.580Z,56.92
2019-06-08T21:18:30.591Z,57.00
2019-06-08T21:21:00.964Z,57.06
2019-06-08T21:23:32.275Z,57.18
2019-06-08T21:26:02.731Z,56.79
2019-06-08T21:28:33.225Z,57.45
2019-06-08T21:31:03.749Z,57.34
2019-06-08T21:33:34.224Z,57.61
2019-06-08T21:36:08.366Z,57.57
2019-06-08T21:38:37.666Z,57.57
2019-06-08T21:41:08.487Z,57.18
2019-06-08T21:43:38.933Z,57.26
2019-06-08T21:46:09.368Z,57.54
2019-06-08T21:48:39.824Z,57.84
2019-06-08T21:51:10.269Z,57.74
2019-06-08T21:53:40.789Z,58.57
2019-06-08T21:56:11.749Z,58.00
2019-06-08T21:58:42.140Z,57.89
2019-06-08T22:01:12.652Z,58.64
2019-06-08T22:03:43.157Z,57.95
2019-06-08T22:06:13.774Z,58.57
2019-06-08T22:08:44.447Z,58.70
2019-06-08T22:11:14.782Z,59.10
2019-06-08T22:13:47.479Z,58.97
2019-06-08T22:16:17.368Z,58.62
2019-06-08T22:18:47.718Z,58.86
2019-06-08T22:21:18.231Z,59.08
2019-06-08T22:23:48.714Z,59.43
2019-06-08T22:26:19.070Z,59.20
2019-06-08T22:28:49.475Z,59.33
2019-06-08T22:31:23.025Z,59.40
2019-06-08T22:33:53.036Z,59.37
2019-06-08T22:36:24.137Z,60.15
2019-06-08T22:38:54.510Z,59.75
2019-06-08T22:41:24.984Z,59.54
2019-06-08T22:43:57.914Z,59.79
2019-06-08T22:46:27.401Z,59.67
2019-06-08T22:49:01.190Z,60.17
2019-06-08T22:51:29.983Z,60.03
2019-06-08T22:54:02.017Z,59.87
2019-06-08T22:56:32.633Z,59.90
2019-06-08T22:59:04.738Z,59.71
2019-06-08T23:01:35.264Z,59.46
2019-06-08T23:04:08.620Z,59.56
2019-06-08T23:06:38.630Z,59.54
2019-06-08T23:09:09.171Z,59.71
2019-06-08T23:11:39.515Z,59.92
2019-06-08T23:14:13.294Z,59.98
2019-06-08T23:16:43.422Z,60.35
2019-06-08T23:19:13.949Z,60.33
2019-06-08T23:21:44.357Z,60.65
2019-06-08T23:24:14.718Z,61.08
2019-06-08T23:26:45.081Z,61.23
2019-06-08T23:29:17.870Z,61.14
2019-06-08T23:31:48.172Z,61.77
2019-06-08T23:34:19.057Z,61.82
2019-06-08T23:36:58.632Z,62.04
2019-06-08T23:39:21.622Z,62.18
2019-06-08T23:41:52.005Z,62.10
2019-06-08T23:44:22.553Z,62.31
2019-06-08T23:46:53.150Z,62.70
2019-06-08T23:49:23.576Z,63.35
2019-06-08T23:51:54.025Z,63.53
2019-06-08T23:54:24.586Z,56.95
2019-06-08T23:56:55.020Z,57.04
2019-06-08T23:59:27.588Z,55.67
